sensor_id;sensor_type;location;lat;lon;timestamp;P1;durP1;ratioP1;P2;durP2;ratioP2
28245;SDS011;15510;52.512;13.300;2024-03-08T00:01:41;28.13;;;15.17;;
28245;SDS011;15510;52.512;13.300;2024-03-08T00:04:07;24.70;;;14.70;;
28245;SDS011;15510;52.512;13.300;2024-03-08T00:06:33;24.73;;;14.33;;
28245;SDS011;15510;52.512;13.300;2024-03-08T00:08:59;28.77;;;14.17;;
28245;SDS011;15510;52.512;13.300;2024-03-08T00:11:25;27.20;;;14.27;;
28245;SDS011;15510;52.512;13.300;2024-03-08T00:13:51;25.20;;;14.67;;
28245;SDS011;15510;52.512;13.300;2024-03-08T00:16:18;23.60;;;13.87;;
28245;SDS011;15510;52.512;13.300;2024-03-08T00:18:48;23.23;;;13.57;;
28245;SDS011;15510;52.512;13.300;2024-03-08T00:21:14;22.93;;;14.10;;
28245;SDS011;15510;52.512;13.300;2024-03-08T00:23:40;25.07;;;15.07;;
28245;SDS011;15510;52.512;13.300;2024-03-08T00:26:06;26.17;;;13.40;;
28245;SDS011;15510;52.512;13.300;2024-03-08T00:28:32;26.80;;;14.17;;
28245;SDS011;15510;52.512;13.300;2024-03-08T00:30:59;26.33;;;13.77;;
28245;SDS011;15510;52.512;13.300;2024-03-08T00:33:25;25.57;;;12.90;;
28245;SDS011;15510;52.512;13.300;2024-03-08T00:35:52;22.17;;;13.43;;
28245;SDS011;15510;52.512;13.300;2024-03-08T00:38:19;26.97;;;15.07;;
28245;SDS011;15510;52.512;13.300;2024-03-08T00:40:44;24.73;;;14.57;;
28245;SDS011;15510;52.512;13.300;2024-03-08T00:43:11;23.67;;;13.30;;
28245;SDS011;15510;52.512;13.300;2024-03-08T00:45:38;22.70;;;14.07;;
28245;SDS011;15510;52.512;13.300;2024-03-08T00:48:06;20.37;;;12.57;;
28245;SDS011;15510;52.512;13.300;2024-03-08T00:50:32;25.67;;;14.20;;
28245;SDS011;15510;52.512;13.300;2024-03-08T00:52:59;25.00;;;13.60;;
28245;SDS011;15510;52.512;13.300;2024-03-08T00:55:25;22.67;;;14.20;;
28245;SDS011;15510;52.512;13.300;2024-03-08T00:57:51;21.90;;;13.10;;
28245;SDS011;15510;52.512;13.300;2024-03-08T01:00:19;25.20;;;15.03;;
28245;SDS011;15510;52.512;13.300;2024-03-08T01:02:46;26.07;;;14.30;;
28245;SDS011;15510;52.512;13.300;2024-03-08T01:05:13;25.27;;;13.87;;
28245;SDS011;15510;52.512;13.300;2024-03-08T01:07:39;30.07;;;15.17;;
28245;SDS011;15510;52.512;13.300;2024-03-08T01:10:05;24.87;;;14.10;;
28245;SDS011;15510;52.512;13.300;2024-03-08T01:12:34;25.47;;;13.93;;
28245;SDS011;15510;52.512;13.300;2024-03-08T01:15:00;26.00;;;13.37;;
28245;SDS011;15510;52.512;13.300;2024-03-08T01:17:26;26.23;;;14.50;;
28245;SDS011;15510;52.512;13.300;2024-03-08T01:19:52;28.90;;;14.33;;
28245;SDS011;15510;52.512;13.300;2024-03-08T01:22:19;26.27;;;14.20;;
28245;SDS011;15510;52.512;13.300;2024-03-08T01:24:45;24.13;;;13.93;;
28245;SDS011;15510;52.512;13.300;2024-03-08T01:27:10;25.97;;;13.93;;
28245;SDS011;15510;52.512;13.300;2024-03-08T01:29:37;22.30;;;13.57;;
28245;SDS011;15510;52.512;13.300;2024-03-08T01:32:03;22.57;;;13.17;;
28245;SDS011;15510;52.512;13.300;2024-03-08T01:34:30;23.63;;;13.93;;
28245;SDS011;15510;52.512;13.300;2024-03-08T01:36:55;25.53;;;14.73;;
28245;SDS011;15510;52.512;13.300;2024-03-08T01:39:21;23.93;;;13.73;;
28245;SDS011;15510;52.512;13.300;2024-03-08T01:41:47;26.33;;;13.43;;
28245;SDS011;15510;52.512;13.300;2024-03-08T01:44:13;22.90;;;13.20;;
28245;SDS011;15510;52.512;13.300;2024-03-08T01:46:45;26.03;;;13.60;;
28245;SDS011;15510;52.512;13.300;2024-03-08T01:49:13;25.93;;;14.33;;
28245;SDS011;15510;52.512;13.300;2024-03-08T01:51:40;24.30;;;13.50;;
28245;SDS011;15510;52.512;13.300;2024-03-08T01:54:07;25.13;;;13.50;;
28245;SDS011;15510;52.512;13.300;2024-03-08T01:56:38;21.53;;;13.23;;
28245;SDS011;15510;52.512;13.300;2024-03-08T01:59:04;23.93;;;14.17;;
28245;SDS011;15510;52.512;13.300;2024-03-08T02:01:32;23.83;;;13.60;;
28245;SDS011;15510;52.512;13.300;2024-03-08T02:03:59;28.60;;;14.77;;
28245;SDS011;15510;52.512;13.300;2024-03-08T02:06:25;24.03;;;13.73;;
28245;SDS011;15510;52.512;13.300;2024-03-08T02:08:51;26.40;;;15.03;;
28245;SDS011;15510;52.512;13.300;2024-03-08T02:11:17;23.80;;;13.67;;
28245;SDS011;15510;52.512;13.300;2024-03-08T02:13:44;25.03;;;13.70;;
28245;SDS011;15510;52.512;13.300;2024-03-08T02:16:10;26.10;;;14.20;;
28245;SDS011;15510;52.512;13.300;2024-03-08T02:18:36;27.03;;;14.00;;
28245;SDS011;15510;52.512;13.300;2024-03-08T02:21:02;26.73;;;13.47;;
28245;SDS011;15510;52.512;13.300;2024-03-08T02:23:29;28.70;;;14.00;;
28245;SDS011;15510;52.512;13.300;2024-03-08T02:25:55;28.90;;;15.53;;
28245;SDS011;15510;52.512;13.300;2024-03-08T02:28:21;27.00;;;14.63;;
28245;SDS011;15510;52.512;13.300;2024-03-08T02:30:48;26.07;;;14.03;;
28245;SDS011;15510;52.512;13.300;2024-03-08T02:33:15;27.20;;;14.53;;
28245;SDS011;15510;52.512;13.300;2024-03-08T02:35:43;26.20;;;14.33;;
28245;SDS011;15510;52.512;13.300;2024-03-08T02:38:15;22.20;;;13.80;;
28245;SDS011;15510;52.512;13.300;2024-03-08T02:40:42;25.90;;;14.63;;
28245;SDS011;15510;52.512;13.300;2024-03-08T02:43:09;26.10;;;14.47;;
28245;SDS011;15510;52.512;13.300;2024-03-08T02:45:35;23.60;;;13.77;;
28245;SDS011;15510;52.512;13.300;2024-03-08T02:48:01;27.20;;;13.90;;
28245;SDS011;15510;52.512;13.300;2024-03-08T02:50:27;22.40;;;13.53;;
28245;SDS011;15510;52.512;13.300;2024-03-08T02:52:53;25.90;;;14.90;;
28245;SDS011;15510;52.512;13.300;2024-03-08T02:55:19;21.07;;;13.67;;
28245;SDS011;15510;52.512;13.300;2024-03-08T02:57:45;29.23;;;14.67;;
28245;SDS011;15510;52.512;13.300;2024-03-08T03:00:14;23.00;;;13.30;;
28245;SDS011;15510;52.512;13.300;2024-03-08T03:02:41;25.77;;;13.13;;
28245;SDS011;15510;52.512;13.300;2024-03-08T03:05:07;23.60;;;13.73;;
28245;SDS011;15510;52.512;13.300;2024-03-08T03:07:35;26.27;;;13.97;;
28245;SDS011;15510;52.512;13.300;2024-03-08T03:10:01;27.93;;;13.17;;
28245;SDS011;15510;52.512;13.300;2024-03-08T03:12:27;27.20;;;14.03;;
28245;SDS011;15510;52.512;13.300;2024-03-08T03:14:54;25.40;;;13.30;;
28245;SDS011;15510;52.512;13.300;2024-03-08T03:17:19;25.63;;;14.33;;
28245;SDS011;15510;52.512;13.300;2024-03-08T03:19:45;24.23;;;14.10;;
28245;SDS011;15510;52.512;13.300;2024-03-08T03:22:14;26.37;;;14.53;;
28245;SDS011;15510;52.512;13.300;2024-03-08T03:24:41;29.20;;;14.10;;
28245;SDS011;15510;52.512;13.300;2024-03-08T03:27:07;23.10;;;13.57;;
28245;SDS011;15510;52.512;13.300;2024-03-08T03:29:37;26.13;;;14.10;;
28245;SDS011;15510;52.512;13.300;2024-03-08T03:32:08;22.83;;;13.37;;
28245;SDS011;15510;52.512;13.300;2024-03-08T03:34:34;24.87;;;14.63;;
28245;SDS011;15510;52.512;13.300;2024-03-08T03:37:03;26.27;;;14.97;;
28245;SDS011;15510;52.512;13.300;2024-03-08T03:39:29;26.20;;;13.73;;
28245;SDS011;15510;52.512;13.300;2024-03-08T03:41:59;24.20;;;13.90;;
28245;SDS011;15510;52.512;13.300;2024-03-08T03:44:30;26.37;;;14.80;;
28245;SDS011;15510;52.512;13.300;2024-03-08T03:46:55;27.93;;;14.13;;
28245;SDS011;15510;52.512;13.300;2024-03-08T03:49:21;26.93;;;14.10;;
28245;SDS011;15510;52.512;13.300;2024-03-08T03:51:47;22.37;;;13.60;;
28245;SDS011;15510;52.512;13.300;2024-03-08T03:54:13;25.13;;;14.40;;
28245;SDS011;15510;52.512;13.300;2024-03-08T03:56:39;27.97;;;13.77;;
28245;SDS011;15510;52.512;13.300;2024-03-08T03:59:07;27.03;;;14.60;;
28245;SDS011;15510;52.512;13.300;2024-03-08T04:01:33;24.57;;;14.07;;
28245;SDS011;15510;52.512;13.300;2024-03-08T04:03:59;25.37;;;14.17;;
28245;SDS011;15510;52.512;13.300;2024-03-08T04:06:25;27.40;;;15.00;;
28245;SDS011;15510;52.512;13.300;2024-03-08T04:08:50;27.67;;;15.13;;
28245;SDS011;15510;52.512;13.300;2024-03-08T04:11:16;27.33;;;13.90;;
28245;SDS011;15510;52.512;13.300;2024-03-08T04:13:42;25.73;;;15.37;;
28245;SDS011;15510;52.512;13.300;2024-03-08T04:16:08;25.50;;;13.87;;
28245;SDS011;15510;52.512;13.300;2024-03-08T04:18:36;31.07;;;16.30;;
28245;SDS011;15510;52.512;13.300;2024-03-08T04:21:06;26.60;;;14.33;;
28245;SDS011;15510;52.512;13.300;2024-03-08T04:23:34;32.13;;;15.83;;
28245;SDS011;15510;52.512;13.300;2024-03-08T04:26:03;33.30;;;16.07;;
28245;SDS011;15510;52.512;13.300;2024-03-08T04:28:31;27.23;;;14.87;;
28245;SDS011;15510;52.512;13.300;2024-03-08T04:30:57;30.27;;;15.43;;
28245;SDS011;15510;52.512;13.300;2024-03-08T04:33:25;26.93;;;15.27;;
28245;SDS011;15510;52.512;13.300;2024-03-08T04:35:52;26.47;;;15.03;;
28245;SDS011;15510;52.512;13.300;2024-03-08T04:38:18;25.27;;;13.93;;
28245;SDS011;15510;52.512;13.300;2024-03-08T04:40:44;28.03;;;15.50;;
28245;SDS011;15510;52.512;13.300;2024-03-08T04:43:10;27.63;;;15.50;;
28245;SDS011;15510;52.512;13.300;2024-03-08T04:45:36;25.27;;;14.93;;
28245;SDS011;15510;52.512;13.300;2024-03-08T04:48:02;31.80;;;16.63;;
28245;SDS011;15510;52.512;13.300;2024-03-08T04:50:28;29.57;;;15.80;;
28245;SDS011;15510;52.512;13.300;2024-03-08T04:52:54;28.70;;;16.37;;
28245;SDS011;15510;52.512;13.300;2024-03-08T04:55:20;29.30;;;16.23;;
28245;SDS011;15510;52.512;13.300;2024-03-08T04:57:47;27.70;;;15.87;;
28245;SDS011;15510;52.512;13.300;2024-03-08T05:00:13;26.37;;;15.47;;
28245;SDS011;15510;52.512;13.300;2024-03-08T05:02:40;27.27;;;15.37;;
28245;SDS011;15510;52.512;13.300;2024-03-08T05:05:07;29.87;;;16.17;;
28245;SDS011;15510;52.512;13.300;2024-03-08T05:07:40;29.27;;;16.23;;
28245;SDS011;15510;52.512;13.300;2024-03-08T05:10:06;28.50;;;15.73;;
28245;SDS011;15510;52.512;13.300;2024-03-08T05:12:33;27.67;;;15.90;;
28245;SDS011;15510;52.512;13.300;2024-03-08T05:14:58;32.13;;;15.87;;
28245;SDS011;15510;52.512;13.300;2024-03-08T05:17:25;33.20;;;17.63;;
28245;SDS011;15510;52.512;13.300;2024-03-08T05:19:51;28.93;;;14.93;;
28245;SDS011;15510;52.512;13.300;2024-03-08T05:22:22;31.07;;;16.33;;
28245;SDS011;15510;52.512;13.300;2024-03-08T05:24:51;32.60;;;16.10;;
28245;SDS011;15510;52.512;13.300;2024-03-08T05:27:17;31.57;;;16.40;;
28245;SDS011;15510;52.512;13.300;2024-03-08T05:29:45;32.13;;;16.97;;
28245;SDS011;15510;52.512;13.300;2024-03-08T05:32:11;32.87;;;17.20;;
28245;SDS011;15510;52.512;13.300;2024-03-08T05:34:37;33.43;;;17.33;;
28245;SDS011;15510;52.512;13.300;2024-03-08T05:37:03;28.97;;;16.30;;
28245;SDS011;15510;52.512;13.300;2024-03-08T05:39:29;31.07;;;16.53;;
28245;SDS011;15510;52.512;13.300;2024-03-08T05:41:55;31.53;;;16.20;;
28245;SDS011;15510;52.512;13.300;2024-03-08T05:44:24;28.60;;;15.80;;
28245;SDS011;15510;52.512;13.300;2024-03-08T05:46:49;37.93;;;17.27;;
28245;SDS011;15510;52.512;13.300;2024-03-08T05:49:16;32.57;;;17.20;;
28245;SDS011;15510;52.512;13.300;2024-03-08T05:51:41;38.87;;;18.37;;
28245;SDS011;15510;52.512;13.300;2024-03-08T05:54:08;29.50;;;16.67;;
28245;SDS011;15510;52.512;13.300;2024-03-08T05:56:36;28.53;;;15.47;;
28245;SDS011;15510;52.512;13.300;2024-03-08T05:59:02;25.03;;;14.60;;
28245;SDS011;15510;52.512;13.300;2024-03-08T06:01:31;30.03;;;16.83;;
28245;SDS011;15510;52.512;13.300;2024-03-08T06:03:57;33.23;;;17.73;;
28245;SDS011;15510;52.512;13.300;2024-03-08T06:06:24;29.07;;;16.10;;
28245;SDS011;15510;52.512;13.300;2024-03-08T06:08:50;31.40;;;17.63;;
28245;SDS011;15510;52.512;13.300;2024-03-08T06:11:16;29.83;;;17.00;;
28245;SDS011;15510;52.512;13.300;2024-03-08T06:13:45;33.27;;;17.47;;
28245;SDS011;15510;52.512;13.300;2024-03-08T06:16:11;33.57;;;18.53;;
28245;SDS011;15510;52.512;13.300;2024-03-08T06:18:37;28.87;;;16.40;;
28245;SDS011;15510;52.512;13.300;2024-03-08T06:21:04;30.80;;;17.83;;
28245;SDS011;15510;52.512;13.300;2024-03-08T06:23:33;30.87;;;17.40;;
28245;SDS011;15510;52.512;13.300;2024-03-08T06:26:03;30.30;;;17.77;;
28245;SDS011;15510;52.512;13.300;2024-03-08T06:28:29;28.30;;;15.80;;
28245;SDS011;15510;52.512;13.300;2024-03-08T06:30:57;28.60;;;16.00;;
28245;SDS011;15510;52.512;13.300;2024-03-08T06:33:24;29.77;;;16.20;;
28245;SDS011;15510;52.512;13.300;2024-03-08T06:35:52;28.30;;;15.60;;
28245;SDS011;15510;52.512;13.300;2024-03-08T06:38:18;28.90;;;15.40;;
28245;SDS011;15510;52.512;13.300;2024-03-08T06:40:44;28.87;;;16.37;;
28245;SDS011;15510;52.512;13.300;2024-03-08T06:43:13;32.67;;;17.40;;
28245;SDS011;15510;52.512;13.300;2024-03-08T06:45:47;32.77;;;17.37;;
28245;SDS011;15510;52.512;13.300;2024-03-08T06:48:17;35.57;;;16.60;;
28245;SDS011;15510;52.512;13.300;2024-03-08T06:50:43;31.03;;;16.97;;
28245;SDS011;15510;52.512;13.300;2024-03-08T06:53:10;31.80;;;16.10;;
28245;SDS011;15510;52.512;13.300;2024-03-08T06:55:36;31.67;;;17.30;;
28245;SDS011;15510;52.512;13.300;2024-03-08T06:58:02;32.07;;;17.43;;
28245;SDS011;15510;52.512;13.300;2024-03-08T07:00:31;31.50;;;17.53;;
28245;SDS011;15510;52.512;13.300;2024-03-08T07:02:56;31.37;;;16.90;;
28245;SDS011;15510;52.512;13.300;2024-03-08T07:05:26;28.23;;;15.80;;
28245;SDS011;15510;52.512;13.300;2024-03-08T07:07:52;27.27;;;15.67;;
28245;SDS011;15510;52.512;13.300;2024-03-08T07:10:22;29.27;;;15.40;;
28245;SDS011;15510;52.512;13.300;2024-03-08T07:12:52;30.13;;;16.43;;
28245;SDS011;15510;52.512;13.300;2024-03-08T07:15:21;27.30;;;15.50;;
28245;SDS011;15510;52.512;13.300;2024-03-08T07:17:48;25.73;;;14.97;;
28245;SDS011;15510;52.512;13.300;2024-03-08T07:20:14;31.17;;;16.63;;
28245;SDS011;15510;52.512;13.300;2024-03-08T07:22:44;27.20;;;15.17;;
28245;SDS011;15510;52.512;13.300;2024-03-08T07:25:12;28.00;;;15.47;;
28245;SDS011;15510;52.512;13.300;2024-03-08T07:27:50;27.73;;;15.23;;
28245;SDS011;15510;52.512;13.300;2024-03-08T07:30:23;30.70;;;15.23;;
28245;SDS011;15510;52.512;13.300;2024-03-08T07:33:09;27.83;;;14.90;;
28245;SDS011;15510;52.512;13.300;2024-03-08T07:35:38;28.77;;;15.60;;
28245;SDS011;15510;52.512;13.300;2024-03-08T07:38:05;26.23;;;14.40;;
28245;SDS011;15510;52.512;13.300;2024-03-08T07:40:36;25.97;;;14.20;;
28245;SDS011;15510;52.512;13.300;2024-03-08T07:43:04;26.43;;;14.30;;
28245;SDS011;15510;52.512;13.300;2024-03-08T07:45:30;26.80;;;14.73;;
28245;SDS011;15510;52.512;13.300;2024-03-08T07:47:56;26.90;;;15.03;;
28245;SDS011;15510;52.512;13.300;2024-03-08T07:50:22;26.33;;;15.03;;
28245;SDS011;15510;52.512;13.300;2024-03-08T07:52:48;29.57;;;17.13;;
28245;SDS011;15510;52.512;13.300;2024-03-08T07:55:14;27.40;;;14.60;;
28245;SDS011;15510;52.512;13.300;2024-03-08T07:57:40;26.83;;;14.97;;
28245;SDS011;15510;52.512;13.300;2024-03-08T08:00:07;24.80;;;14.23;;
28245;SDS011;15510;52.512;13.300;2024-03-08T08:02:34;28.20;;;15.10;;
28245;SDS011;15510;52.512;13.300;2024-03-08T08:05:03;27.47;;;15.00;;
28245;SDS011;15510;52.512;13.300;2024-03-08T08:07:30;34.83;;;16.80;;
28245;SDS011;15510;52.512;13.300;2024-03-08T08:09:55;27.83;;;14.77;;
28245;SDS011;15510;52.512;13.300;2024-03-08T08:12:21;33.03;;;16.63;;
28245;SDS011;15510;52.512;13.300;2024-03-08T08:14:47;30.00;;;15.87;;
28245;SDS011;15510;52.512;13.300;2024-03-08T08:17:15;30.20;;;15.30;;
28245;SDS011;15510;52.512;13.300;2024-03-08T08:19:41;28.30;;;15.50;;
28245;SDS011;15510;52.512;13.300;2024-03-08T08:22:08;31.63;;;16.70;;
28245;SDS011;15510;52.512;13.300;2024-03-08T08:24:36;25.80;;;14.33;;
28245;SDS011;15510;52.512;13.300;2024-03-08T08:27:03;25.80;;;14.23;;
28245;SDS011;15510;52.512;13.300;2024-03-08T08:29:29;26.87;;;15.13;;
28245;SDS011;15510;52.512;13.300;2024-03-08T08:31:57;27.23;;;14.57;;
28245;SDS011;15510;52.512;13.300;2024-03-08T08:34:24;23.07;;;14.57;;
28245;SDS011;15510;52.512;13.300;2024-03-08T08:36:53;31.17;;;14.80;;
28245;SDS011;15510;52.512;13.300;2024-03-08T08:39:21;30.23;;;15.63;;
28245;SDS011;15510;52.512;13.300;2024-03-08T08:41:48;23.33;;;13.70;;
28245;SDS011;15510;52.512;13.300;2024-03-08T08:44:14;27.97;;;13.93;;
28245;SDS011;15510;52.512;13.300;2024-03-08T08:46:45;26.90;;;13.93;;
28245;SDS011;15510;52.512;13.300;2024-03-08T08:49:11;27.77;;;15.00;;
28245;SDS011;15510;52.512;13.300;2024-03-08T08:51:39;29.87;;;14.30;;
28245;SDS011;15510;52.512;13.300;2024-03-08T08:54:05;25.53;;;13.17;;
28245;SDS011;15510;52.512;13.300;2024-03-08T08:56:34;27.07;;;13.40;;
28245;SDS011;15510;52.512;13.300;2024-03-08T08:59:03;27.90;;;14.37;;
28245;SDS011;15510;52.512;13.300;2024-03-08T09:01:29;23.90;;;13.60;;
28245;SDS011;15510;52.512;13.300;2024-03-08T09:03:55;25.80;;;14.30;;
28245;SDS011;15510;52.512;13.300;2024-03-08T09:06:21;24.50;;;13.73;;
28245;SDS011;15510;52.512;13.300;2024-03-08T09:08:47;27.07;;;13.50;;
28245;SDS011;15510;52.512;13.300;2024-03-08T09:11:13;24.47;;;14.03;;
28245;SDS011;15510;52.512;13.300;2024-03-08T09:13:40;30.47;;;15.03;;
28245;SDS011;15510;52.512;13.300;2024-03-08T09:16:06;25.57;;;14.37;;
28245;SDS011;15510;52.512;13.300;2024-03-08T09:18:31;25.80;;;16.27;;
28245;SDS011;15510;52.512;13.300;2024-03-08T09:20:58;24.00;;;14.70;;
28245;SDS011;15510;52.512;13.300;2024-03-08T09:23:24;25.73;;;15.13;;
28245;SDS011;15510;52.512;13.300;2024-03-08T09:25:55;26.93;;;15.60;;
28245;SDS011;15510;52.512;13.300;2024-03-08T09:28:28;27.00;;;16.10;;
28245;SDS011;15510;52.512;13.300;2024-03-08T09:30:54;28.10;;;16.07;;
28245;SDS011;15510;52.512;13.300;2024-03-08T09:33:20;29.93;;;15.77;;
28245;SDS011;15510;52.512;13.300;2024-03-08T09:35:47;29.83;;;15.60;;
28245;SDS011;15510;52.512;13.300;2024-03-08T09:38:13;29.33;;;16.50;;
28245;SDS011;15510;52.512;13.300;2024-03-08T09:40:43;27.07;;;14.40;;
28245;SDS011;15510;52.512;13.300;2024-03-08T09:43:09;30.40;;;15.27;;
28245;SDS011;15510;52.512;13.300;2024-03-08T09:45:37;29.90;;;15.37;;
28245;SDS011;15510;52.512;13.300;2024-03-08T09:48:15;28.47;;;15.63;;
28245;SDS011;15510;52.512;13.300;2024-03-08T09:50:44;27.43;;;15.27;;
28245;SDS011;15510;52.512;13.300;2024-03-08T09:53:12;24.60;;;14.73;;
28245;SDS011;15510;52.512;13.300;2024-03-08T09:55:39;26.03;;;15.10;;
28245;SDS011;15510;52.512;13.300;2024-03-08T09:58:07;27.00;;;15.07;;
28245;SDS011;15510;52.512;13.300;2024-03-08T10:00:53;27.27;;;15.13;;
28245;SDS011;15510;52.512;13.300;2024-03-08T10:03:22;27.13;;;15.27;;
28245;SDS011;15510;52.512;13.300;2024-03-08T10:05:48;29.50;;;15.63;;
28245;SDS011;15510;52.512;13.300;2024-03-08T10:08:15;24.90;;;14.70;;
28245;SDS011;15510;52.512;13.300;2024-03-08T10:10:41;24.73;;;14.70;;
28245;SDS011;15510;52.512;13.300;2024-03-08T10:13:08;29.50;;;15.20;;
28245;SDS011;15510;52.512;13.300;2024-03-08T10:15:39;26.80;;;14.93;;
28245;SDS011;15510;52.512;13.300;2024-03-08T10:18:06;25.20;;;14.73;;
28245;SDS011;15510;52.512;13.300;2024-03-08T10:20:33;23.23;;;13.47;;
28245;SDS011;15510;52.512;13.300;2024-03-08T10:22:59;25.57;;;14.33;;
28245;SDS011;15510;52.512;13.300;2024-03-08T10:25:28;30.20;;;13.67;;
28245;SDS011;15510;52.512;13.300;2024-03-08T10:27:57;25.50;;;14.73;;
28245;SDS011;15510;52.512;13.300;2024-03-08T10:30:29;25.63;;;14.27;;
28245;SDS011;15510;52.512;13.300;2024-03-08T10:32:55;20.47;;;13.37;;
28245;SDS011;15510;52.512;13.300;2024-03-08T10:35:21;22.03;;;13.57;;
28245;SDS011;15510;52.512;13.300;2024-03-08T10:37:49;20.40;;;12.47;;
28245;SDS011;15510;52.512;13.300;2024-03-08T10:40:24;23.03;;;13.23;;
28245;SDS011;15510;52.512;13.300;2024-03-08T10:47:59;20.53;;;12.33;;
28245;SDS011;15510;52.512;13.300;2024-03-08T10:50:49;22.97;;;13.47;;
28245;SDS011;15510;52.512;13.300;2024-03-08T10:53:17;22.20;;;14.20;;
28245;SDS011;15510;52.512;13.300;2024-03-08T10:55:46;24.07;;;12.90;;
28245;SDS011;15510;52.512;13.300;2024-03-08T10:58:13;23.60;;;13.87;;
28245;SDS011;15510;52.512;13.300;2024-03-08T11:00:39;22.00;;;12.73;;
28245;SDS011;15510;52.512;13.300;2024-03-08T11:03:33;23.17;;;12.40;;
28245;SDS011;15510;52.512;13.300;2024-03-08T11:06:14;22.40;;;12.37;;
28245;SDS011;15510;52.512;13.300;2024-03-08T11:08:49;19.60;;;12.40;;
28245;SDS011;15510;52.512;13.300;2024-03-08T11:11:25;20.10;;;12.70;;
28245;SDS011;15510;52.512;13.300;2024-03-08T11:13:56;23.07;;;12.07;;
28245;SDS011;15510;52.512;13.300;2024-03-08T11:18:57;20.03;;;12.30;;
28245;SDS011;15510;52.512;13.300;2024-03-08T11:21:33;19.93;;;11.97;;
28245;SDS011;15510;52.512;13.300;2024-03-08T11:24:02;21.40;;;12.23;;
28245;SDS011;15510;52.512;13.300;2024-03-08T11:26:35;20.27;;;11.20;;
28245;SDS011;15510;52.512;13.300;2024-03-08T11:34:42;18.02;;;10.82;;
28245;SDS011;15510;52.512;13.300;2024-03-08T11:37:11;18.58;;;11.13;;
28245;SDS011;15510;52.512;13.300;2024-03-08T11:39:46;21.08;;;11.13;;
28245;SDS011;15510;52.512;13.300;2024-03-08T11:42:14;20.33;;;11.50;;
28245;SDS011;15510;52.512;13.300;2024-03-08T11:44:42;20.60;;;11.60;;
28245;SDS011;15510;52.512;13.300;2024-03-08T11:47:10;19.10;;;11.60;;
28245;SDS011;15510;52.512;13.300;2024-03-08T11:49:36;18.65;;;10.70;;
28245;SDS011;15510;52.512;13.300;2024-03-08T11:52:03;18.27;;;11.38;;
28245;SDS011;15510;52.512;13.300;2024-03-08T11:54:29;15.48;;;10.40;;
28245;SDS011;15510;52.512;13.300;2024-03-08T11:57:01;19.20;;;11.07;;
28245;SDS011;15510;52.512;13.300;2024-03-08T11:59:30;18.73;;;11.32;;
28245;SDS011;15510;52.512;13.300;2024-03-08T12:02:05;16.60;;;11.05;;
28245;SDS011;15510;52.512;13.300;2024-03-08T12:04:31;16.23;;;10.90;;
28245;SDS011;15510;52.512;13.300;2024-03-08T12:07:01;16.02;;;10.40;;
28245;SDS011;15510;52.512;13.300;2024-03-08T12:09:28;17.73;;;10.07;;
28245;SDS011;15510;52.512;13.300;2024-03-08T12:11:54;16.05;;;10.77;;
28245;SDS011;15510;52.512;13.300;2024-03-08T12:14:20;17.60;;;10.13;;
28245;SDS011;15510;52.512;13.300;2024-03-08T12:16:47;17.75;;;11.20;;
28245;SDS011;15510;52.512;13.300;2024-03-08T12:19:16;17.30;;;10.70;;
28245;SDS011;15510;52.512;13.300;2024-03-08T12:21:41;19.95;;;11.00;;
28245;SDS011;15510;52.512;13.300;2024-03-08T12:24:14;18.63;;;11.43;;
28245;SDS011;15510;52.512;13.300;2024-03-08T12:26:47;16.02;;;10.18;;
28245;SDS011;15510;52.512;13.300;2024-03-08T12:31:45;18.52;;;10.90;;
28245;SDS011;15510;52.512;13.300;2024-03-08T12:34:14;17.15;;;11.35;;
28245;SDS011;15510;52.512;13.300;2024-03-08T12:36:49;18.10;;;12.32;;
28245;SDS011;15510;52.512;13.300;2024-03-08T12:39:19;20.95;;;11.65;;
28245;SDS011;15510;52.512;13.300;2024-03-08T12:41:53;16.92;;;10.93;;
28245;SDS011;15510;52.512;13.300;2024-03-08T12:44:19;18.05;;;11.55;;
28245;SDS011;15510;52.512;13.300;2024-03-08T12:46:46;18.50;;;11.70;;
28245;SDS011;15510;52.512;13.300;2024-03-08T12:49:16;20.08;;;11.55;;
28245;SDS011;15510;52.512;13.300;2024-03-08T12:51:47;24.58;;;16.15;;
28245;SDS011;15510;52.512;13.300;2024-03-08T12:54:13;18.23;;;12.73;;
28245;SDS011;15510;52.512;13.300;2024-03-08T12:56:42;20.30;;;11.57;;
28245;SDS011;15510;52.512;13.300;2024-03-08T12:59:08;18.17;;;11.88;;
28245;SDS011;15510;52.512;13.300;2024-03-08T13:01:34;18.27;;;11.75;;
28245;SDS011;15510;52.512;13.300;2024-03-08T13:04:02;18.08;;;11.60;;
28245;SDS011;15510;52.512;13.300;2024-03-08T13:06:29;19.45;;;11.27;;
28245;SDS011;15510;52.512;13.300;2024-03-08T13:08:56;19.35;;;12.32;;
28245;SDS011;15510;52.512;13.300;2024-03-08T13:11:23;19.65;;;12.38;;
28245;SDS011;15510;52.512;13.300;2024-03-08T13:13:53;17.63;;;10.82;;
28245;SDS011;15510;52.512;13.300;2024-03-08T13:16:19;21.23;;;11.35;;
28245;SDS011;15510;52.512;13.300;2024-03-08T13:18:45;14.77;;;10.68;;
28245;SDS011;15510;52.512;13.300;2024-03-08T13:21:14;32.90;;;19.52;;
28245;SDS011;15510;52.512;13.300;2024-03-08T13:23:40;24.40;;;12.98;;
28245;SDS011;15510;52.512;13.300;2024-03-08T13:26:13;17.55;;;12.30;;
28245;SDS011;15510;52.512;13.300;2024-03-08T13:28:42;17.15;;;11.20;;
28245;SDS011;15510;52.512;13.300;2024-03-08T13:31:11;19.50;;;11.55;;
28245;SDS011;15510;52.512;13.300;2024-03-08T13:33:37;18.10;;;11.25;;
28245;SDS011;15510;52.512;13.300;2024-03-08T13:36:10;17.05;;;10.73;;
28245;SDS011;15510;52.512;13.300;2024-03-08T13:38:45;19.20;;;11.23;;
28245;SDS011;15510;52.512;13.300;2024-03-08T13:41:12;19.63;;;11.80;;
28245;SDS011;15510;52.512;13.300;2024-03-08T13:43:48;19.80;;;11.40;;
28245;SDS011;15510;52.512;13.300;2024-03-08T13:46:15;18.77;;;11.68;;
28245;SDS011;15510;52.512;13.300;2024-03-08T13:48:41;18.33;;;11.07;;
28245;SDS011;15510;52.512;13.300;2024-03-08T13:51:07;21.25;;;13.20;;
28245;SDS011;15510;52.512;13.300;2024-03-08T13:53:39;18.00;;;10.67;;
28245;SDS011;15510;52.512;13.300;2024-03-08T13:56:05;19.00;;;11.50;;
28245;SDS011;15510;52.512;13.300;2024-03-08T13:58:31;17.77;;;11.02;;
28245;SDS011;15510;52.512;13.300;2024-03-08T14:01:00;19.98;;;11.20;;
28245;SDS011;15510;52.512;13.300;2024-03-08T14:03:28;17.53;;;11.03;;
28245;SDS011;15510;52.512;13.300;2024-03-08T14:05:54;23.83;;;11.03;;
28245;SDS011;15510;52.512;13.300;2024-03-08T14:08:20;19.90;;;11.03;;
28245;SDS011;15510;52.512;13.300;2024-03-08T14:10:47;19.73;;;10.20;;
28245;SDS011;15510;52.512;13.300;2024-03-08T14:13:14;18.67;;;9.97;;
28245;SDS011;15510;52.512;13.300;2024-03-08T14:15:43;16.07;;;10.23;;
28245;SDS011;15510;52.512;13.300;2024-03-08T14:18:13;21.57;;;10.97;;
28245;SDS011;15510;52.512;13.300;2024-03-08T14:20:40;17.27;;;10.57;;
28245;SDS011;15510;52.512;13.300;2024-03-08T14:23:07;17.40;;;11.17;;
28245;SDS011;15510;52.512;13.300;2024-03-08T14:25:33;16.67;;;10.00;;
28245;SDS011;15510;52.512;13.300;2024-03-08T14:27:59;15.33;;;8.97;;